createdAt,value
2022-08-28T00:00:18.750Z,19.70
2022-08-28T00:02:46.961Z,19.70
2022-08-28T00:05:17.018Z,19.70
2022-08-28T00:07:47.766Z,19.60
2022-08-28T00:10:17.950Z,19.60
2022-08-28T00:12:48.014Z,19.50
2022-08-28T00:15:19.848Z,19.50
2022-08-28T00:17:47.571Z,19.50
2022-08-28T00:20:18.976Z,19.50
2022-08-28T00:22:47.519Z,19.50
2022-08-28T00:25:17.552Z,19.50
2022-08-28T00:27:55.158Z,19.40
2022-08-28T00:30:35.043Z,19.40
2022-08-28T00:33:06.778Z,19.30
2022-08-28T00:35:35.034Z,19.30
2022-08-28T00:38:02.668Z,19.40
2022-08-28T00:40:33.016Z,19.50
2022-08-28T00:43:06.049Z,19.40
2022-08-28T00:45:39.355Z,19.30
2022-08-28T00:48:08.646Z,19.30
2022-08-28T00:51:00.146Z,19.20
2022-08-28T00:53:32.961Z,19.20
2022-08-28T00:56:10.276Z,19.20
2022-08-28T00:58:43.654Z,19.10
2022-08-28T01:01:13.145Z,19.20
2022-08-28T01:03:41.297Z,19.10
2022-08-28T01:06:09.335Z,19.10
2022-08-28T01:08:39.332Z,19.10
2022-08-28T01:11:08.422Z,19.10
2022-08-28T01:13:40.289Z,19.00
2022-08-28T01:16:09.338Z,19.00
2022-08-28T01:18:37.137Z,19.00
2022-08-28T01:21:29.637Z,19.00
2022-08-28T01:24:05.347Z,19.00
2022-08-28T01:26:33.229Z,19.00
2022-08-28T01:29:01.813Z,19.00
2022-08-28T01:31:31.849Z,19.00
2022-08-28T01:33:59.895Z,19.00
2022-08-28T01:36:29.427Z,19.00
2022-08-28T01:39:04.158Z,18.90
2022-08-28T01:41:31.962Z,18.90
2022-08-28T01:43:59.978Z,18.80
2022-08-28T01:46:28.504Z,18.80
2022-08-28T01:48:56.162Z,18.80
2022-08-28T01:51:24.718Z,18.80
2022-08-28T01:53:53.229Z,18.80
2022-08-28T01:56:21.403Z,18.80
2022-08-28T01:58:49.483Z,18.80
2022-08-28T02:01:21.389Z,18.80
2022-08-28T02:03:49.886Z,18.70
2022-08-28T02:06:18.305Z,18.70
2022-08-28T02:08:47.149Z,18.60
2022-08-28T02:11:16.149Z,18.60
2022-08-28T02:13:44.770Z,18.60
2022-08-28T02:16:13.097Z,18.60
2022-08-28T02:18:41.538Z,18.60
2022-08-28T02:21:10.434Z,18.60
2022-08-28T02:23:40.366Z,18.50
2022-08-28T02:26:09.297Z,18.50
2022-08-28T02:28:37.884Z,18.50
2022-08-28T02:31:09.625Z,18.50
2022-08-28T02:33:43.985Z,18.40
2022-08-28T02:36:13.936Z,18.40
2022-08-28T02:38:42.474Z,18.40
2022-08-28T02:41:11.891Z,18.40
2022-08-28T02:43:40.459Z,18.40
2022-08-28T02:46:08.549Z,18.40
2022-08-28T02:48:38.484Z,18.30
2022-08-28T02:51:09.437Z,18.30
2022-08-28T02:53:37.812Z,18.20
2022-08-28T02:56:06.747Z,18.20
2022-08-28T02:58:35.750Z,18.20
2022-08-28T03:01:07.362Z,18.20
2022-08-28T03:03:36.153Z,18.20
2022-08-28T03:06:06.818Z,18.20
2022-08-28T03:08:34.789Z,18.20
2022-08-28T03:11:02.655Z,18.20
2022-08-28T03:13:30.513Z,18.20
2022-08-28T03:15:59.438Z,18.20
2022-08-28T03:18:30.637Z,18.00
2022-08-28T03:20:58.448Z,18.00
2022-08-28T03:23:29.152Z,18.00
2022-08-28T03:25:58.550Z,18.00
2022-08-28T03:28:29.471Z,18.00
2022-08-28T03:30:58.022Z,18.00
2022-08-28T03:33:27.136Z,18.00
2022-08-28T03:35:55.973Z,18.00
2022-08-28T03:38:25.271Z,18.00
2022-08-28T03:40:53.992Z,18.00
2022-08-28T03:43:24.230Z,18.00
2022-08-28T03:45:58.392Z,18.00
2022-08-28T03:48:28.873Z,17.90
2022-08-28T03:50:56.949Z,18.00
2022-08-28T03:53:27.775Z,17.90
2022-08-28T03:55:56.629Z,17.90
2022-08-28T03:58:25.073Z,17.80
2022-08-28T04:00:53.337Z,17.80
2022-08-28T04:03:21.552Z,17.80
2022-08-28T04:05:49.730Z,17.80
2022-08-28T04:08:18.916Z,17.70
2022-08-28T04:10:48.266Z,17.60
2022-08-28T04:13:17.486Z,17.70
2022-08-28T04:15:45.583Z,17.80
2022-08-28T04:18:13.622Z,17.80
2022-08-28T04:20:41.754Z,17.80
2022-08-28T04:23:14.132Z,17.90
2022-08-28T04:25:41.932Z,17.90
2022-08-28T04:28:09.713Z,17.90
2022-08-28T04:30:37.672Z,17.90
2022-08-28T04:33:06.582Z,17.90
2022-08-28T04:35:34.350Z,17.90
2022-08-28T04:38:05.473Z,17.90
2022-08-28T04:40:33.576Z,17.90
2022-08-28T04:43:01.308Z,17.90
2022-08-28T04:45:29.899Z,17.90
2022-08-28T04:47:58.428Z,17.90
2022-08-28T04:50:28.069Z,18.00
2022-08-28T04:52:55.954Z,18.00
2022-08-28T04:55:45.059Z,18.00
2022-08-28T04:58:12.237Z,18.00
2022-08-28T05:00:42.107Z,18.00
2022-08-28T05:03:11.710Z,18.00
2022-08-28T05:05:51.189Z,18.00
2022-08-28T05:08:21.255Z,18.00
2022-08-28T05:10:49.452Z,18.00
2022-08-28T05:13:18.797Z,18.00
2022-08-28T05:15:49.445Z,18.00
2022-08-28T05:18:21.791Z,18.00
2022-08-28T05:20:50.137Z,18.00
2022-08-28T05:23:17.953Z,18.00
2022-08-28T05:25:49.089Z,18.00
2022-08-28T05:28:17.758Z,18.00
2022-08-28T05:30:46.069Z,18.10
2022-08-28T05:33:15.472Z,18.10
2022-08-28T05:35:45.528Z,18.10
2022-08-28T05:38:15.521Z,18.10
2022-08-28T05:40:45.851Z,18.10
2022-08-28T05:43:16.375Z,18.10
2022-08-28T05:45:44.393Z,18.10
2022-08-28T05:48:12.348Z,18.10
2022-08-28T05:50:47.162Z,18.20
2022-08-28T05:53:18.267Z,18.20
2022-08-28T05:55:50.655Z,18.20
2022-08-28T05:58:33.743Z,18.30
2022-08-28T06:01:14.093Z,18.30
2022-08-28T06:03:45.285Z,18.40
2022-08-28T06:06:13.357Z,18.50
2022-08-28T06:08:56.380Z,18.50
2022-08-28T06:11:30.634Z,18.50
2022-08-28T06:14:03.461Z,18.60
2022-08-28T06:16:32.633Z,18.70
2022-08-28T06:19:00.892Z,18.70
2022-08-28T06:21:29.913Z,18.80
2022-08-28T06:23:57.950Z,18.80
2022-08-28T06:26:25.941Z,18.80
2022-08-28T06:28:53.961Z,18.90
2022-08-28T06:31:23.757Z,18.90
2022-08-28T06:33:56.474Z,18.90
2022-08-28T06:36:27.599Z,19.00
2022-08-28T06:38:58.809Z,19.10
2022-08-28T06:41:29.063Z,19.10
2022-08-28T06:43:58.408Z,19.20
2022-08-28T06:46:26.981Z,19.30
2022-08-28T06:48:54.702Z,19.50
2022-08-28T06:51:24.844Z,19.50
2022-08-28T06:53:52.963Z,19.50
2022-08-28T06:56:26.215Z,19.50
2022-08-28T06:58:57.130Z,19.60
2022-08-28T07:01:31.139Z,19.70
2022-08-28T07:04:05.485Z,19.70
2022-08-28T07:06:35.681Z,19.80
2022-08-28T07:09:05.797Z,19.80
2022-08-28T07:11:35.179Z,19.90
2022-08-28T07:14:04.315Z,20.00
2022-08-28T07:16:38.621Z,20.10
2022-08-28T07:19:07.849Z,20.20
2022-08-28T07:21:40.634Z,20.20
2022-08-28T07:24:09.892Z,20.30
2022-08-28T07:26:38.271Z,20.40
2022-08-28T07:29:11.031Z,20.40
2022-08-28T07:31:44.391Z,20.40
2022-08-28T07:34:14.662Z,20.30
2022-08-28T07:36:43.625Z,20.30
2022-08-28T07:39:13.346Z,20.30
2022-08-28T07:41:43.198Z,20.30
2022-08-28T07:44:32.005Z,20.30
2022-08-28T07:47:04.469Z,20.40
2022-08-28T07:49:34.043Z,20.40
2022-08-28T07:52:02.683Z,20.50
2022-08-28T07:54:30.569Z,20.50
2022-08-28T07:56:58.199Z,20.50
2022-08-28T07:59:26.076Z,20.60
2022-08-28T08:01:53.984Z,20.70
2022-08-28T08:04:23.676Z,20.80
2022-08-28T08:06:57.862Z,20.90
2022-08-28T08:09:27.388Z,21.00
2022-08-28T08:11:57.714Z,21.00
2022-08-28T08:14:26.652Z,21.10
2022-08-28T08:16:54.895Z,21.10
2022-08-28T08:19:22.507Z,20.90
2022-08-28T08:21:54.888Z,20.80
2022-08-28T08:24:28.773Z,20.80
2022-08-28T08:27:00.813Z,20.80
2022-08-28T08:29:32.006Z,20.70
2022-08-28T08:32:06.947Z,20.70
2022-08-28T08:34:38.973Z,20.70
2022-08-28T08:37:08.006Z,20.80
2022-08-28T08:39:37.082Z,20.90
2022-08-28T08:42:09.178Z,21.00
2022-08-28T08:44:39.255Z,21.20
2022-08-28T08:47:36.418Z,21.30
2022-08-28T08:50:17.891Z,21.60
2022-08-28T08:52:52.147Z,21.70
2022-08-28T08:55:32.518Z,21.70
2022-08-28T08:58:03.209Z,21.70
2022-08-28T09:00:43.321Z,21.90
2022-08-28T09:03:22.623Z,22.00
2022-08-28T09:05:57.385Z,22.00
2022-08-28T09:08:48.131Z,22.10
2022-08-28T09:11:45.198Z,22.30
2022-08-28T09:14:54.806Z,22.40
2022-08-28T09:17:28.277Z,22.60
2022-08-28T09:19:56.029Z,22.70
2022-08-28T09:22:23.751Z,22.70
2022-08-28T09:24:52.521Z,22.90
2022-08-28T09:27:32.278Z,23.00
2022-08-28T09:30:07.430Z,23.10
2022-08-28T09:32:44.983Z,23.10
2022-08-28T09:35:24.933Z,23.10
2022-08-28T09:37:53.061Z,23.20
2022-08-28T09:40:23.001Z,23.10
2022-08-28T09:43:27.303Z,23.20
2022-08-28T09:46:07.111Z,23.10
2022-08-28T09:48:43.769Z,23.00
2022-08-28T09:51:14.884Z,22.80
2022-08-28T09:53:57.471Z,22.80
2022-08-28T09:56:28.311Z,22.80
2022-08-28T09:58:58.109Z,22.70
2022-08-28T10:01:50.443Z,22.70
2022-08-28T10:04:47.956Z,22.60
2022-08-28T10:07:20.391Z,22.70
2022-08-28T10:10:06.569Z,22.70
2022-08-28T10:12:59.782Z,22.90
2022-08-28T10:15:45.801Z,23.20
2022-08-28T10:18:30.302Z,23.50
2022-08-28T10:21:21.016Z,23.60
2022-08-28T10:24:26.669Z,23.70
2022-08-28T10:27:04.862Z,23.90
2022-08-28T10:29:51.003Z,24.10
2022-08-28T10:32:43.272Z,24.30
2022-08-28T10:35:39.207Z,24.30
2022-08-28T10:38:14.724Z,24.50
2022-08-28T10:40:55.869Z,24.50
2022-08-28T10:43:48.498Z,24.60
2022-08-28T10:46:37.355Z,24.80
2022-08-28T10:49:12.514Z,24.70
2022-08-28T10:51:52.400Z,24.90
2022-08-28T10:54:28.589Z,24.90
2022-08-28T10:57:08.452Z,24.90
2022-08-28T10:59:42.128Z,24.90
2022-08-28T11:02:14.394Z,25.00
2022-08-28T11:04:42.435Z,24.90
2022-08-28T11:07:14.448Z,25.20
2022-08-28T11:09:49.412Z,25.20
2022-08-28T11:12:17.207Z,25.40
2022-08-28T11:14:48.708Z,25.40
2022-08-28T11:17:23.008Z,25.40
2022-08-28T11:20:03.889Z,25.40
2022-08-28T11:22:44.251Z,25.60
2022-08-28T11:25:42.668Z,25.70
2022-08-28T11:28:37.459Z,25.70
2022-08-28T11:31:05.234Z,25.80
2022-08-28T11:33:49.054Z,26.00
2022-08-28T11:36:19.872Z,26.00
2022-08-28T11:38:56.705Z,25.60
2022-08-28T11:42:00.721Z,25.70
2022-08-28T11:44:41.376Z,26.00
2022-08-28T11:47:39.670Z,26.00
2022-08-28T11:50:52.089Z,26.00
2022-08-28T11:53:31.879Z,25.60
2022-08-28T11:56:37.273Z,25.90
2022-08-28T11:59:35.288Z,26.20
2022-08-28T12:02:39.473Z,26.20
2022-08-28T12:05:32.055Z,26.30
2022-08-28T12:08:02.957Z,26.40
2022-08-28T12:10:32.671Z,26.50
2022-08-28T12:13:02.827Z,26.70
2022-08-28T12:15:30.608Z,26.70
2022-08-28T12:18:22.786Z,26.90
2022-08-28T12:21:07.174Z,26.40
2022-08-28T12:23:43.954Z,26.50
2022-08-28T12:26:32.562Z,26.70
2022-08-28T12:29:03.395Z,26.80
2022-08-28T12:32:11.193Z,27.00
2022-08-28T12:34:43.928Z,27.00
2022-08-28T12:37:51.370Z,27.10
2022-08-28T12:40:41.684Z,27.30
2022-08-28T12:43:15.533Z,27.50
2022-08-28T12:45:52.442Z,27.30
2022-08-28T12:48:25.142Z,27.30
2022-08-28T12:51:13.832Z,27.50
2022-08-28T12:53:44.767Z,27.60
2022-08-28T12:56:15.762Z,27.50
2022-08-28T12:58:43.830Z,27.40
2022-08-28T13:01:42.020Z,27.60
2022-08-28T13:04:33.549Z,27.70
2022-08-28T13:07:14.211Z,27.80
2022-08-28T13:09:51.805Z,27.70
2022-08-28T13:12:54.835Z,27.80
2022-08-28T13:15:46.957Z,27.90
2022-08-28T13:18:42.582Z,28.10
2022-08-28T13:21:33.548Z,28.20
2022-08-28T13:24:26.438Z,28.20
2022-08-28T13:27:22.392Z,28.30
2022-08-28T13:30:05.277Z,28.30
2022-08-28T13:32:37.274Z,28.10
2022-08-28T13:35:23.261Z,28.10
2022-08-28T13:37:54.174Z,27.70
2022-08-28T13:43:22.626Z,28.10
2022-08-28T13:45:51.674Z,28.30
2022-08-28T13:48:27.714Z,28.40
2022-08-28T13:51:10.269Z,28.40
2022-08-28T13:53:39.782Z,28.50
2022-08-28T13:56:08.007Z,28.40
2022-08-28T13:58:35.869Z,28.40
2022-08-28T14:01:04.770Z,28.40
2022-08-28T14:03:36.152Z,28.30
2022-08-28T14:06:07.484Z,28.20
2022-08-28T14:08:35.316Z,28.40
2022-08-28T14:11:03.020Z,28.60
2022-08-28T14:13:31.454Z,28.40
2022-08-28T14:15:59.494Z,28.40
2022-08-28T14:18:28.451Z,28.20
2022-08-28T14:20:56.189Z,28.30
2022-08-28T14:23:24.084Z,28.00
2022-08-28T14:25:51.848Z,27.90
2022-08-28T14:28:19.598Z,27.70
2022-08-28T14:30:49.729Z,27.70
2022-08-28T14:33:20.844Z,27.50
2022-08-28T14:35:49.490Z,27.70
2022-08-28T14:38:17.828Z,27.60
2022-08-28T14:40:45.724Z,27.40
2022-08-28T14:43:14.451Z,27.20
2022-08-28T14:45:47.671Z,27.10
2022-08-28T14:48:17.660Z,27.20
2022-08-28T14:50:48.436Z,27.40
2022-08-28T14:53:17.391Z,27.30
2022-08-28T14:55:50.369Z,27.20
2022-08-28T14:58:19.750Z,27.10
2022-08-28T15:00:50.222Z,27.00
2022-08-28T15:03:19.493Z,26.90
2022-08-28T15:05:47.369Z,26.90
2022-08-28T15:08:17.490Z,26.80
2022-08-28T15:10:45.554Z,26.80
2022-08-28T15:13:15.261Z,26.80
2022-08-28T15:15:43.326Z,26.70
2022-08-28T15:18:12.279Z,26.60
2022-08-28T15:20:45.416Z,26.60
2022-08-28T15:23:15.261Z,26.40
2022-08-28T15:25:43.256Z,26.40
2022-08-28T15:28:11.349Z,26.30
2022-08-28T15:30:39.502Z,26.20
2022-08-28T15:33:07.705Z,26.20
2022-08-28T15:35:37.391Z,26.20
2022-08-28T15:38:06.382Z,26.00
2022-08-28T15:40:53.337Z,26.00
2022-08-28T15:43:21.531Z,26.00
2022-08-28T15:45:50.330Z,25.90
2022-08-28T15:48:18.229Z,25.90
2022-08-28T15:50:46.003Z,25.80
2022-08-28T15:53:13.891Z,25.70
2022-08-28T15:55:46.170Z,25.60
2022-08-28T15:58:14.450Z,25.60
2022-08-28T16:00:43.163Z,25.60
2022-08-28T16:03:10.939Z,25.60
2022-08-28T16:05:39.673Z,25.50
2022-08-28T16:08:09.960Z,25.40
2022-08-28T16:10:37.951Z,25.30
2022-08-28T16:13:06.971Z,25.30
2022-08-28T16:15:35.507Z,25.30
2022-08-28T16:18:03.638Z,25.20
2022-08-28T16:20:32.853Z,25.10
2022-08-28T16:23:00.745Z,25.00
2022-08-28T16:25:28.334Z,25.00
2022-08-28T16:27:56.688Z,24.90
2022-08-28T16:30:24.690Z,24.90
2022-08-28T16:32:54.260Z,24.80
2022-08-28T16:35:22.598Z,24.70
2022-08-28T16:37:50.670Z,24.60
2022-08-28T16:40:18.550Z,24.60
2022-08-28T16:42:51.363Z,24.60
2022-08-28T16:45:20.679Z,24.50
2022-08-28T16:47:49.373Z,24.50
2022-08-28T16:50:19.691Z,24.40
2022-08-28T16:52:47.642Z,24.30
2022-08-28T16:55:15.632Z,24.30
2022-08-28T16:57:43.482Z,24.30
2022-08-28T17:00:13.464Z,24.20
2022-08-28T17:02:42.624Z,24.10
2022-08-28T17:05:13.161Z,24.10
2022-08-28T17:07:41.269Z,24.00
2022-08-28T17:10:10.861Z,24.00
2022-08-28T17:12:39.662Z,24.00
2022-08-28T17:15:17.362Z,23.90
2022-08-28T17:17:45.246Z,23.90
2022-08-28T17:20:33.924Z,23.80
2022-08-28T17:23:01.802Z,23.70
2022-08-28T17:25:29.725Z,23.60
2022-08-28T17:27:57.783Z,23.60
2022-08-28T17:30:25.683Z,23.60
2022-08-28T17:32:53.928Z,23.50
2022-08-28T17:35:22.331Z,23.50
2022-08-28T17:37:54.009Z,23.50
2022-08-28T17:40:22.955Z,23.50
2022-08-28T17:42:53.127Z,23.40
2022-08-28T17:45:21.210Z,23.30
2022-08-28T17:47:48.882Z,23.20
2022-08-28T17:50:16.795Z,23.20
2022-08-28T17:52:44.630Z,23.20
2022-08-28T17:55:12.539Z,23.10
2022-08-28T17:57:40.203Z,23.10
2022-08-28T18:00:10.647Z,23.10
2022-08-28T18:02:41.259Z,23.00
2022-08-28T18:05:10.816Z,23.00
2022-08-28T18:07:39.322Z,22.90
2022-08-28T18:10:09.380Z,22.90
2022-08-28T18:12:37.408Z,22.90
2022-08-28T18:15:06.470Z,22.80
2022-08-28T18:17:34.447Z,22.80
2022-08-28T18:20:02.423Z,22.80
2022-08-28T18:22:30.145Z,22.70
2022-08-28T18:24:58.145Z,22.70
2022-08-28T18:27:28.144Z,22.70
2022-08-28T18:29:55.913Z,22.60
2022-08-28T18:32:23.640Z,22.60
2022-08-28T18:34:51.754Z,22.50
2022-08-28T18:37:19.499Z,22.50
2022-08-28T18:39:47.227Z,22.50
2022-08-28T18:42:15.042Z,22.50
2022-08-28T18:44:42.804Z,22.40
2022-08-28T18:47:10.407Z,22.40
2022-08-28T18:49:38.397Z,22.30
2022-08-28T18:52:06.277Z,22.30
2022-08-28T18:54:34.113Z,22.30
2022-08-28T18:57:04.069Z,22.20
2022-08-28T18:59:33.695Z,22.20
2022-08-28T19:02:01.891Z,22.20
2022-08-28T19:04:29.786Z,22.10
2022-08-28T19:06:57.805Z,22.10
2022-08-28T19:09:31.732Z,22.00
2022-08-28T19:12:00.316Z,22.00
2022-08-28T19:14:31.040Z,22.00
2022-08-28T19:17:00.554Z,22.00
2022-08-28T19:19:29.033Z,21.90
2022-08-28T19:21:57.464Z,21.90
2022-08-28T19:24:28.958Z,21.90
2022-08-28T19:26:59.282Z,21.90
2022-08-28T19:29:28.087Z,21.80
2022-08-28T19:31:56.016Z,21.80
2022-08-28T19:34:24.107Z,21.80
2022-08-28T19:36:51.952Z,21.80
2022-08-28T19:39:19.976Z,21.70
2022-08-28T19:41:47.607Z,21.70
2022-08-28T19:44:15.416Z,21.70
2022-08-28T19:46:43.172Z,21.70
2022-08-28T19:49:11.094Z,21.60
2022-08-28T19:51:39.898Z,21.60
2022-08-28T19:54:11.439Z,21.60
2022-08-28T19:56:40.246Z,21.60
2022-08-28T19:59:09.201Z,21.50
2022-08-28T20:01:40.780Z,21.40
2022-08-28T20:04:10.107Z,21.40
2022-08-28T20:06:37.875Z,21.30
2022-08-28T20:09:10.696Z,21.30
2022-08-28T20:11:40.318Z,21.20
2022-08-28T20:14:08.115Z,21.30
2022-08-28T20:16:39.913Z,21.20
2022-08-28T20:19:10.716Z,21.30
2022-08-28T20:21:40.882Z,21.30
2022-08-28T20:24:12.020Z,21.20
2022-08-28T20:26:40.372Z,21.20
2022-08-28T20:29:09.712Z,21.20
2022-08-28T20:31:42.811Z,21.20
2022-08-28T20:34:11.912Z,21.20
2022-08-28T20:36:40.236Z,21.10
2022-08-28T20:39:09.684Z,21.10
2022-08-28T20:41:39.255Z,21.10
2022-08-28T20:44:09.578Z,21.10
2022-08-28T20:46:41.242Z,21.10
2022-08-28T20:49:14.116Z,21.10
2022-08-28T20:51:53.291Z,21.10
2022-08-28T20:54:22.774Z,20.90
2022-08-28T20:56:52.457Z,21.00
2022-08-28T20:59:21.489Z,20.90
2022-08-28T21:01:52.325Z,21.00
2022-08-28T21:04:20.582Z,21.00
2022-08-28T21:06:48.292Z,20.90
2022-08-28T21:09:17.209Z,20.90
2022-08-28T21:11:45.161Z,20.90
2022-08-28T21:14:13.110Z,20.90
2022-08-28T21:16:41.904Z,20.90
2022-08-28T21:19:16.020Z,20.90
2022-08-28T21:21:45.773Z,20.90
2022-08-28T21:24:16.007Z,20.90
2022-08-28T21:26:49.352Z,20.90
2022-08-28T21:29:21.015Z,20.90
2022-08-28T21:31:51.372Z,20.90
2022-08-28T21:34:21.722Z,20.90
2022-08-28T21:36:50.725Z,20.90
2022-08-28T21:39:23.370Z,20.80
2022-08-28T21:41:51.503Z,20.90
2022-08-28T21:44:19.231Z,20.80
2022-08-28T21:46:47.068Z,20.90
2022-08-28T21:49:14.783Z,20.90
2022-08-28T21:51:42.467Z,20.90
2022-08-28T21:54:10.163Z,20.80
2022-08-28T21:56:37.900Z,20.90
2022-08-28T21:59:05.550Z,20.90
2022-08-28T22:01:33.452Z,20.90
2022-08-28T22:04:01.251Z,20.90
2022-08-28T22:06:29.058Z,20.90
2022-08-28T22:08:57.252Z,20.80
2022-08-28T22:11:25.460Z,20.70
2022-08-28T22:13:54.915Z,20.70
2022-08-28T22:16:23.292Z,20.70
2022-08-28T22:18:51.686Z,20.70
2022-08-28T22:21:42.228Z,20.70
2022-08-28T22:24:10.757Z,20.70
2022-08-28T22:26:38.594Z,20.60
2022-08-28T22:29:06.485Z,20.60
2022-08-28T22:31:35.503Z,20.60
2022-08-28T22:34:06.232Z,20.60
2022-08-28T22:36:34.020Z,20.70
2022-08-28T22:39:02.059Z,20.60
2022-08-28T22:41:30.840Z,20.50
2022-08-28T22:43:59.212Z,20.50
2022-08-28T22:46:28.405Z,20.50
2022-08-28T22:48:56.949Z,20.50
2022-08-28T22:51:24.573Z,20.40
2022-08-28T22:53:52.785Z,20.40
2022-08-28T22:56:20.678Z,20.40
2022-08-28T22:58:48.508Z,20.40
2022-08-28T23:01:19.398Z,20.20
2022-08-28T23:03:47.712Z,20.20
2022-08-28T23:06:15.996Z,20.10
2022-08-28T23:08:43.868Z,20.10
2022-08-28T23:11:11.796Z,20.00
2022-08-28T23:13:40.076Z,19.90
2022-08-28T23:16:08.493Z,19.90
2022-08-28T23:19:04.273Z,19.90
2022-08-28T23:21:26.440Z,19.90
2022-08-28T23:23:55.348Z,19.90
2022-08-28T23:26:24.594Z,19.90
2022-08-28T23:28:53.104Z,19.90
2022-08-28T23:31:21.041Z,19.90
2022-08-28T23:33:49.430Z,19.80
2022-08-28T23:36:18.299Z,19.80
2022-08-28T23:38:46.200Z,19.80
2022-08-28T23:41:13.975Z,19.80
2022-08-28T23:43:42.227Z,19.80
2022-08-28T23:46:13.779Z,19.80
2022-08-28T23:48:41.788Z,19.80
2022-08-28T23:51:10.814Z,19.80
2022-08-28T23:53:40.774Z,19.80
2022-08-28T23:56:09.468Z,19.80
2022-08-28T23:58:37.245Z,19.70
